Pennock, Minnesota
Current Conditions -  °F | °C
As of 2:15 PM on Wednesday 26 Nov 2014 (Local Time) from KBDH Reporting Station
Broken Clouds Broken Clouds  
Wind Chill: 11°   Ceiling: 1500
Heat Index: 23°   Visibility: 10mi
Dew Point: 16°   Wind: 13mph
Humidity: 74%   Direction: 350°N
Pressure: 30.26"   Gusts: NA
Location:  45.15°N, 95.18°W
Report Text: KBDH 262015Z AUTO 35011KT 10SM BKN015 M05/M09 A3026 RMK AO2
Loading
Personal Weather Stations






























Interactive Weather Map New forecast layout! Learn more

10-Day Weather Forecast

Advertisements
Track Severe Weather on mobile